Terminal Aerodrome Forecast
Issued by NWS Milwaukee/Sullivan, WI

Current Version | Previous Version | Text Only | Print | Product List | Glossary On
Versions: 1 2 3 4 5 6 7 8 9 10 11 12 13 14 15 16 17 18 19 20 21 22 23 24 25 26 27 28 29 30 31 32 33 34 35 36 37 38 39 40 41 42 43 44 45 46 47 48 49 50
000
FTUS43 KMKX 291144
TAFMKE
TAF
KMKE 291144Z 2912/3018 04007KT 3SM -SHRA BR OVC003
     FM291500 16008KT 6SM -SHRA BR OVC008
     FM292100 15006KT P6SM BKN035
     FM300000 09005KT P6SM BKN040
     FM300400 VRB03KT 3SM BR SCT035
     FM300900 00000KT 2SM BR SCT020
     FM301500 03004KT P6SM SCT025=

USA.gov is the U.S. government's official web portal to all federal, state and local government web resources and services.